createdAt,value
2022-12-15T00:00:05.105Z,0.46
2022-12-15T00:02:25.490Z,0.46
2022-12-15T00:04:45.570Z,0.48
2022-12-15T00:07:06.091Z,0.47
2022-12-15T00:09:30.788Z,0.46
2022-12-15T00:11:51.328Z,0.46
2022-12-15T00:14:11.581Z,0.48
2022-12-15T00:16:31.879Z,0.46
2022-12-15T00:18:52.343Z,0.45
2022-12-15T00:21:16.353Z,0.45
2022-12-15T00:23:36.619Z,0.45
2022-12-15T00:25:56.904Z,0.45
2022-12-15T00:28:17.174Z,0.46
2022-12-15T00:30:37.609Z,0.45
2022-12-15T00:32:57.631Z,0.47
2022-12-15T00:35:20.996Z,0.47
2022-12-15T00:37:41.409Z,0.48
2022-12-15T00:39:43.002Z,0.48
2022-12-15T00:41:44.696Z,0.48
2022-12-15T00:43:46.875Z,0.50
2022-12-15T00:46:07.379Z,0.52
2022-12-15T00:48:08.996Z,0.53
2022-12-15T00:50:29.325Z,0.56
2022-12-15T00:52:49.432Z,0.56
2022-12-15T00:55:09.801Z,0.59
2022-12-15T00:57:30.196Z,0.61
2022-12-15T00:59:50.289Z,0.61
2022-12-15T01:02:11.963Z,0.63
2022-12-15T01:04:32.297Z,0.66
2022-12-15T01:06:52.377Z,0.69
2022-12-15T01:09:18.584Z,0.70
2022-12-15T01:11:40.262Z,0.73
2022-12-15T01:14:00.554Z,0.74
2022-12-15T01:16:22.617Z,0.76
2022-12-15T01:18:43.081Z,0.77
2022-12-15T01:21:00.560Z,0.78
2022-12-15T01:23:02.447Z,0.80
2022-12-15T01:25:07.595Z,0.82
2022-12-15T01:27:09.276Z,0.83
2022-12-15T01:29:13.600Z,0.84
2022-12-15T01:31:18.354Z,0.86
2022-12-15T01:33:20.964Z,0.86
2022-12-15T01:35:27.631Z,0.87
2022-12-15T01:37:29.332Z,0.87
2022-12-15T01:39:50.773Z,0.89
2022-12-15T01:41:52.584Z,0.90
2022-12-15T01:43:54.100Z,0.90
2022-12-15T01:45:57.266Z,0.90
2022-12-15T01:48:06.895Z,0.90
2022-12-15T01:50:14.762Z,0.92
2022-12-15T01:52:16.927Z,0.93
2022-12-15T01:54:23.371Z,0.95
2022-12-15T01:56:26.834Z,0.96
2022-12-15T01:58:28.862Z,0.95
2022-12-15T02:00:31.355Z,0.95
2022-12-15T02:02:40.002Z,0.96
2022-12-15T02:04:42.173Z,0.97
2022-12-15T02:06:43.727Z,0.97
2022-12-15T02:08:47.908Z,0.98
2022-12-15T02:11:08.943Z,0.97
2022-12-15T02:13:26.969Z,0.97
2022-12-15T02:15:46.882Z,0.97
2022-12-15T02:18:12.703Z,0.97
2022-12-15T02:20:33.593Z,0.97
2022-12-15T02:22:51.347Z,0.98
2022-12-15T02:25:01.990Z,0.97
2022-12-15T02:27:11.590Z,0.98
2022-12-15T02:29:44.707Z,1.00
2022-12-15T02:32:15.513Z,1.01
2022-12-15T02:34:49.919Z,1.01
2022-12-15T02:36:58.276Z,1.01
2022-12-15T02:38:59.938Z,1.03
2022-12-15T02:41:03.819Z,1.04
2022-12-15T02:43:07.113Z,1.04
2022-12-15T02:45:13.161Z,1.05
2022-12-15T02:47:46.552Z,1.07
2022-12-15T02:49:55.135Z,1.08
2022-12-15T02:52:10.553Z,1.09
2022-12-15T02:54:32.965Z,1.10
2022-12-15T02:57:09.993Z,1.12
2022-12-15T02:59:41.823Z,1.12
2022-12-15T03:01:49.946Z,1.13
2022-12-15T03:03:56.094Z,1.12
2022-12-15T03:05:58.042Z,1.14
2022-12-15T03:08:02.788Z,1.14
2022-12-15T03:10:07.008Z,1.15
2022-12-15T03:12:10.980Z,1.17
2022-12-15T03:14:12.728Z,1.17
2022-12-15T03:16:14.275Z,1.17
2022-12-15T03:18:18.699Z,1.18
2022-12-15T03:20:20.688Z,1.19
2022-12-15T03:22:22.820Z,1.21
2022-12-15T03:24:24.476Z,1.21
2022-12-15T03:26:26.125Z,1.22
2022-12-15T03:28:27.732Z,1.23
2022-12-15T03:30:29.295Z,1.22
2022-12-15T03:32:31.725Z,1.22
2022-12-15T03:34:33.384Z,1.23
2022-12-15T03:36:34.894Z,1.23
2022-12-15T03:38:37.748Z,1.23
2022-12-15T03:40:39.249Z,1.23
2022-12-15T03:42:50.536Z,1.22
2022-12-15T03:44:52.208Z,1.24
2022-12-15T03:46:56.192Z,1.23
2022-12-15T03:49:01.669Z,1.23
2022-12-15T03:51:04.740Z,1.22
2022-12-15T03:53:06.434Z,1.23
2022-12-15T03:55:08.766Z,1.24
2022-12-15T03:57:10.211Z,1.23
2022-12-15T03:59:14.763Z,1.21
2022-12-15T04:01:34.464Z,1.22
2022-12-15T04:03:36.369Z,1.22
2022-12-15T04:05:41.233Z,1.25
2022-12-15T04:07:43.116Z,1.26
2022-12-15T04:09:44.758Z,1.26
2022-12-15T04:11:48.878Z,1.24
2022-12-15T04:13:50.471Z,1.25
2022-12-15T04:15:52.125Z,1.26
2022-12-15T04:17:53.905Z,1.27
2022-12-15T04:20:09.798Z,1.27
2022-12-15T04:22:16.361Z,1.27
2022-12-15T04:24:38.277Z,1.25
2022-12-15T04:26:58.389Z,1.25
2022-12-15T04:29:18.784Z,1.25
2022-12-15T04:31:43.837Z,1.25
2022-12-15T04:34:08.516Z,1.23
2022-12-15T04:36:32.125Z,1.22
2022-12-15T04:38:52.765Z,1.21
2022-12-15T04:41:14.493Z,1.17
2022-12-15T04:43:34.756Z,1.17
2022-12-15T04:45:57.780Z,1.16
2022-12-15T04:48:18.183Z,1.14
2022-12-15T04:50:38.198Z,1.15
2022-12-15T04:52:59.251Z,1.13
2022-12-15T04:55:19.870Z,1.12
2022-12-15T04:57:40.190Z,1.09
2022-12-15T05:00:00.469Z,1.09
2022-12-15T05:02:23.190Z,1.09
2022-12-15T05:04:53.709Z,1.08
2022-12-15T05:07:13.976Z,1.07
2022-12-15T05:09:34.129Z,1.06
2022-12-15T05:11:54.400Z,1.06
2022-12-15T05:14:16.866Z,1.06
2022-12-15T05:16:36.770Z,1.06
2022-12-15T05:18:57.048Z,1.06
2022-12-15T05:21:18.117Z,1.08
2022-12-15T05:23:38.730Z,1.06
2022-12-15T05:25:59.654Z,1.07
2022-12-15T05:28:26.171Z,1.09
2022-12-15T05:30:48.112Z,1.09
2022-12-15T05:32:49.836Z,1.11
2022-12-15T05:34:53.832Z,1.11
2022-12-15T05:36:57.361Z,1.10
2022-12-15T05:38:58.912Z,1.09
2022-12-15T05:41:03.501Z,1.09
2022-12-15T05:43:05.080Z,1.10
2022-12-15T05:45:07.004Z,1.09
2022-12-15T05:47:09.331Z,1.09
2022-12-15T05:49:15.628Z,1.10
2022-12-15T05:51:17.481Z,1.10
2022-12-15T05:53:19.115Z,1.09
2022-12-15T05:55:23.082Z,1.09
2022-12-15T05:57:25.946Z,1.09
2022-12-15T05:59:27.528Z,1.09
2022-12-15T06:01:31.200Z,1.08
2022-12-15T06:03:34.871Z,1.09
2022-12-15T06:05:36.678Z,1.08
2022-12-15T06:07:39.612Z,1.10
2022-12-15T06:09:41.168Z,1.11
2022-12-15T06:11:43.600Z,1.11
2022-12-15T06:13:46.039Z,1.10
2022-12-15T06:15:57.998Z,1.07
2022-12-15T06:17:59.599Z,1.06
2022-12-15T06:20:04.280Z,1.06
2022-12-15T06:22:05.877Z,1.03
2022-12-15T06:24:07.951Z,1.03
2022-12-15T06:26:12.634Z,1.02
2022-12-15T06:28:23.912Z,1.00
2022-12-15T06:30:25.847Z,1.00
2022-12-15T06:32:27.706Z,0.96
2022-12-15T06:34:29.355Z,0.94
2022-12-15T06:36:31.320Z,0.94
2022-12-15T06:38:36.048Z,0.93
2022-12-15T06:40:40.782Z,0.92
2022-12-15T06:42:42.283Z,0.90
2022-12-15T06:44:43.822Z,0.90
2022-12-15T06:46:46.518Z,0.87
2022-12-15T06:48:50.984Z,0.85
2022-12-15T06:50:55.852Z,0.85
2022-12-15T06:52:58.806Z,0.86
2022-12-15T06:55:00.377Z,0.86
2022-12-15T06:57:02.074Z,0.87
2022-12-15T06:59:04.923Z,0.86
2022-12-15T07:01:08.129Z,0.83
2022-12-15T07:03:18.113Z,0.79
2022-12-15T07:05:22.519Z,0.79
2022-12-15T07:07:24.129Z,0.80
2022-12-15T07:09:28.991Z,0.80
2022-12-15T07:11:39.893Z,0.78
2022-12-15T07:13:41.846Z,0.76
2022-12-15T07:15:44.675Z,0.74
2022-12-15T07:17:46.322Z,0.71
2022-12-15T07:19:48.231Z,0.69
2022-12-15T07:21:56.154Z,0.67
2022-12-15T07:23:58.562Z,0.62
2022-12-15T07:26:11.649Z,0.59
2022-12-15T07:28:13.777Z,0.57
2022-12-15T07:30:17.698Z,0.53
2022-12-15T07:32:19.496Z,0.52
2022-12-15T07:34:21.415Z,0.48
2022-12-15T07:36:23.137Z,0.45
2022-12-15T07:38:25.294Z,0.43
2022-12-15T07:40:27.202Z,0.40
2022-12-15T07:42:32.442Z,0.36
2022-12-15T07:44:34.169Z,0.33
2022-12-15T07:46:36.050Z,0.30
2022-12-15T07:48:37.808Z,0.27
2022-12-15T07:50:42.291Z,0.25
2022-12-15T07:52:44.141Z,0.21
2022-12-15T07:54:45.977Z,0.18
2022-12-15T07:56:50.263Z,0.15
2022-12-15T07:58:55.320Z,0.13
2022-12-15T08:01:05.316Z,0.09
2022-12-15T08:03:08.619Z,0.06
2022-12-15T08:05:10.841Z,0.02
2022-12-15T08:07:12.747Z,0.01
2022-12-15T08:09:14.554Z,-0.02
2022-12-15T08:11:16.966Z,-0.04
2022-12-15T08:13:44.947Z,-0.07
2022-12-15T08:15:40.793Z,-0.08
2022-12-15T08:17:46.987Z,-0.12
2022-12-15T08:19:55.737Z,-0.13
2022-12-15T08:22:03.015Z,-0.15
2022-12-15T08:24:07.713Z,-0.16
2022-12-15T08:26:12.825Z,-0.19
2022-12-15T08:28:15.546Z,-0.20
2022-12-15T08:30:18.641Z,-0.21
2022-12-15T08:32:20.768Z,-0.23
2022-12-15T08:34:24.312Z,-0.24
2022-12-15T08:36:26.489Z,-0.25
2022-12-15T08:38:28.191Z,-0.29
2022-12-15T08:40:35.973Z,-0.29
2022-12-15T08:42:38.143Z,-0.31
2022-12-15T08:44:39.932Z,-0.31
2022-12-15T08:46:41.712Z,-0.29
2022-12-15T08:48:43.714Z,-0.29
2022-12-15T08:50:46.702Z,-0.28
2022-12-15T08:53:13.867Z,-0.27
2022-12-15T08:55:20.787Z,-0.26
2022-12-15T08:57:24.532Z,-0.25
2022-12-15T08:59:26.501Z,-0.24
2022-12-15T09:01:33.195Z,-0.20
2022-12-15T09:03:36.236Z,-0.20
2022-12-15T09:05:38.580Z,-0.18
2022-12-15T09:07:40.264Z,-0.18
2022-12-15T09:09:43.080Z,-0.16
2022-12-15T09:11:44.654Z,-0.14
2022-12-15T09:13:46.287Z,-0.11
2022-12-15T09:16:11.724Z,-0.10
2022-12-15T09:18:13.604Z,-0.09
2022-12-15T09:20:17.828Z,-0.06
2022-12-15T09:22:20.089Z,-0.04
2022-12-15T09:24:32.286Z,0.00
2022-12-15T09:26:36.219Z,0.03
2022-12-15T09:28:38.352Z,0.06
2022-12-15T09:30:47.694Z,0.08
2022-12-15T09:32:49.385Z,0.11
2022-12-15T09:34:52.043Z,0.12
2022-12-15T09:36:53.641Z,0.14
2022-12-15T09:38:55.417Z,0.18
2022-12-15T09:40:57.457Z,0.22
2022-12-15T09:43:25.730Z,0.25
2022-12-15T09:45:43.551Z,0.27
2022-12-15T09:47:53.712Z,0.30
2022-12-15T09:50:05.086Z,0.34
2022-12-15T09:52:12.506Z,0.35
2022-12-15T09:54:14.162Z,0.39
2022-12-15T09:56:23.561Z,0.41
2022-12-15T09:58:47.828Z,0.45
2022-12-15T10:00:58.985Z,0.50
2022-12-15T10:03:18.722Z,0.52
2022-12-15T10:08:07.699Z,0.63
2022-12-15T10:10:22.769Z,0.70
2022-12-15T10:12:33.722Z,0.76
2022-12-15T10:14:38.517Z,0.82
2022-12-15T10:17:02.853Z,0.87
2022-12-15T10:19:24.761Z,0.90
2022-12-15T10:21:28.472Z,0.95
2022-12-15T10:23:30.785Z,1.01
2022-12-15T10:25:32.750Z,1.05
2022-12-15T10:28:18.519Z,1.10
2022-12-15T10:30:20.663Z,1.17
2022-12-15T10:35:16.644Z,1.27
2022-12-15T10:37:20.949Z,1.35
2022-12-15T10:39:23.724Z,1.39
2022-12-15T10:41:28.699Z,1.43
2022-12-15T10:43:46.939Z,1.46
2022-12-15T10:45:50.265Z,1.52
2022-12-15T10:48:04.080Z,1.57
2022-12-15T10:50:26.081Z,1.62
2022-12-15T10:52:35.870Z,1.67
2022-12-15T10:54:45.492Z,1.72
2022-12-15T10:56:52.860Z,1.78
2022-12-15T10:58:58.297Z,1.81
2022-12-15T11:01:08.975Z,1.84
2022-12-15T11:03:26.806Z,1.89
2022-12-15T11:05:28.878Z,1.94
2022-12-15T11:07:43.756Z,1.97
2022-12-15T11:09:48.767Z,2.02
2022-12-15T11:12:12.536Z,2.06
2022-12-15T11:14:20.172Z,2.11
2022-12-15T11:16:21.697Z,2.15
2022-12-15T11:18:29.665Z,2.20
2022-12-15T11:20:35.737Z,2.23
2022-12-15T11:22:49.721Z,2.24
2022-12-15T11:25:12.619Z,2.28
2022-12-15T11:27:36.470Z,2.30
2022-12-15T11:29:50.161Z,2.34
2022-12-15T11:31:55.423Z,2.36
2022-12-15T11:34:00.093Z,2.39
2022-12-15T11:36:20.726Z,2.43
2022-12-15T11:38:37.542Z,2.49
2022-12-15T11:40:41.267Z,2.52
2022-12-15T11:42:52.748Z,2.55
2022-12-15T11:45:29.819Z,2.57
2022-12-15T11:47:52.272Z,2.62
2022-12-15T11:49:56.610Z,2.66
2022-12-15T11:52:31.013Z,2.68
2022-12-15T11:55:02.020Z,2.72
2022-12-15T11:57:18.930Z,2.76
2022-12-15T11:59:42.619Z,2.78
2022-12-15T12:02:03.676Z,2.82
2022-12-15T12:04:24.596Z,2.86
2022-12-15T12:06:42.841Z,2.91
2022-12-15T12:09:06.900Z,2.93
2022-12-15T12:11:34.505Z,2.96
2022-12-15T12:14:11.771Z,2.97
2022-12-15T12:16:45.474Z,2.98
2022-12-15T12:19:05.924Z,3.00
2022-12-15T12:21:23.290Z,3.03
2022-12-15T12:23:36.524Z,3.06
2022-12-15T12:25:45.921Z,3.10
2022-12-15T12:28:03.727Z,3.13
2022-12-15T12:30:14.783Z,3.16
2022-12-15T12:32:16.354Z,3.17
2022-12-15T12:34:33.010Z,3.17
2022-12-15T12:36:35.045Z,3.19
2022-12-15T12:38:58.316Z,3.19
2022-12-15T12:41:24.890Z,3.19
2022-12-15T12:43:36.759Z,3.21
2022-12-15T12:45:50.865Z,3.24
2022-12-15T12:47:56.181Z,3.25
2022-12-15T12:50:13.738Z,3.27
2022-12-15T12:52:23.549Z,3.26
2022-12-15T12:54:37.239Z,3.25
2022-12-15T12:56:45.367Z,3.26
2022-12-15T12:58:48.574Z,3.27
2022-12-15T13:01:11.544Z,3.27
2022-12-15T13:03:21.429Z,3.27
2022-12-15T13:05:34.106Z,3.26
2022-12-15T13:07:40.722Z,3.28
2022-12-15T13:09:43.697Z,3.28
2022-12-15T13:11:57.361Z,3.27
2022-12-15T13:14:01.737Z,3.25
2022-12-15T13:16:26.142Z,3.22
2022-12-15T13:18:28.383Z,3.22
2022-12-15T13:20:32.688Z,3.18
2022-12-15T13:22:36.391Z,3.19
2022-12-15T13:24:46.086Z,3.18
2022-12-15T13:26:52.947Z,3.15
2022-12-15T13:28:56.638Z,3.16
2022-12-15T13:31:13.841Z,3.11
2022-12-15T13:33:19.484Z,3.09
2022-12-15T13:35:26.497Z,3.07
2022-12-15T13:37:46.642Z,3.04
2022-12-15T13:39:54.781Z,3.01
2022-12-15T13:44:32.794Z,3.01
2022-12-15T13:46:35.651Z,3.01
2022-12-15T13:48:50.756Z,2.99
2022-12-15T13:50:57.386Z,2.96
2022-12-15T13:55:34.102Z,2.93
2022-12-15T13:58:13.506Z,2.88
2022-12-15T14:00:18.556Z,2.87
2022-12-15T14:02:33.969Z,2.86
2022-12-15T14:04:35.433Z,2.85
2022-12-15T14:07:10.641Z,2.83
2022-12-15T14:09:19.482Z,2.82
2022-12-15T14:11:51.239Z,2.80
2022-12-15T14:13:50.504Z,2.81
2022-12-15T14:16:18.568Z,2.77
2022-12-15T14:18:27.819Z,2.77
2022-12-15T14:20:38.593Z,2.76
2022-12-15T14:22:44.684Z,2.75
2022-12-15T14:24:49.227Z,2.75
2022-12-15T14:26:51.121Z,2.74
2022-12-15T14:29:03.478Z,2.71
2022-12-15T14:31:11.761Z,2.71
2022-12-15T14:33:17.988Z,2.69
2022-12-15T14:35:30.742Z,2.66
2022-12-15T14:37:33.232Z,2.66
2022-12-15T14:39:47.687Z,2.65
2022-12-15T14:41:54.356Z,2.63
2022-12-15T14:44:31.839Z,2.63
2022-12-15T14:46:26.779Z,2.59
2022-12-15T14:51:00.422Z,2.54
2022-12-15T14:53:12.412Z,2.51
2022-12-15T14:55:36.085Z,2.49
2022-12-15T14:57:41.195Z,2.47
2022-12-15T14:59:46.018Z,2.43
2022-12-15T15:02:02.538Z,2.41
2022-12-15T15:03:06.628Z,1.20
2022-12-15T15:03:13.114Z,3.00
2022-12-15T15:04:07.281Z,2.39
2022-12-15T15:06:11.779Z,2.36
2022-12-15T15:08:28.721Z,2.30
2022-12-15T15:10:30.882Z,2.31
2022-12-15T15:12:50.383Z,2.25
2022-12-15T15:15:01.270Z,2.22
2022-12-15T15:17:35.936Z,2.18
2022-12-15T15:19:40.235Z,2.18
2022-12-15T15:21:41.993Z,2.15
2022-12-15T15:24:04.724Z,2.10
2022-12-15T15:26:06.358Z,2.10
2022-12-15T15:28:19.443Z,2.08
2022-12-15T15:30:23.439Z,2.05
2022-12-15T15:32:25.143Z,2.03
2022-12-15T15:34:26.778Z,2.01
2022-12-15T15:36:32.916Z,1.97
2022-12-15T15:38:38.352Z,1.95
2022-12-15T15:40:40.071Z,1.93
2022-12-15T15:42:50.815Z,1.91
2022-12-15T15:44:52.412Z,1.90
2022-12-15T15:46:57.191Z,1.88
2022-12-15T15:49:05.692Z,1.85
2022-12-15T15:51:07.382Z,1.85
2022-12-15T15:53:15.658Z,1.82
2022-12-15T15:55:25.136Z,1.81
2022-12-15T15:57:27.185Z,1.79
2022-12-15T15:59:29.096Z,1.77
2022-12-15T16:01:30.843Z,1.76
2022-12-15T16:03:32.698Z,1.74
2022-12-15T16:05:37.740Z,1.73
2022-12-15T16:07:40.453Z,1.72
2022-12-15T16:09:42.212Z,1.66
2022-12-15T16:11:45.495Z,1.66
2022-12-15T16:13:47.290Z,1.65
2022-12-15T16:15:49.665Z,1.65
2022-12-15T16:17:52.014Z,1.65
2022-12-15T16:19:56.792Z,1.63
2022-12-15T16:21:58.739Z,1.62
2022-12-15T16:24:08.495Z,1.62
2022-12-15T16:26:15.878Z,1.61
2022-12-15T16:28:47.429Z,1.61
2022-12-15T16:30:50.765Z,1.56
2022-12-15T16:32:53.968Z,1.54
2022-12-15T16:34:57.197Z,1.55
2022-12-15T16:36:59.080Z,1.54
2022-12-15T16:39:01.141Z,1.54
2022-12-15T16:41:08.286Z,1.52
2022-12-15T16:43:15.858Z,1.52
2022-12-15T16:45:18.613Z,1.52
2022-12-15T16:47:22.635Z,1.53
2022-12-15T16:49:33.884Z,1.53
2022-12-15T16:51:43.474Z,1.50
2022-12-15T16:53:45.425Z,1.53
2022-12-15T16:55:50.404Z,1.54
2022-12-15T16:57:54.870Z,1.55
2022-12-15T16:59:56.646Z,1.58
2022-12-15T17:01:58.530Z,1.60
2022-12-15T17:04:00.235Z,1.62
2022-12-15T17:06:06.597Z,1.62
2022-12-15T17:08:19.233Z,1.61
2022-12-15T17:10:23.692Z,1.62
2022-12-15T17:12:25.765Z,1.61
2022-12-15T17:14:27.375Z,1.62
2022-12-15T17:16:29.564Z,1.62
2022-12-15T17:18:32.016Z,1.60
2022-12-15T17:20:33.865Z,1.58
2022-12-15T17:22:36.241Z,1.58
2022-12-15T17:24:38.083Z,1.59
2022-12-15T17:26:41.445Z,1.60
2022-12-15T17:28:43.132Z,1.56
2022-12-15T17:30:45.893Z,1.56
2022-12-15T17:32:48.742Z,1.55
2022-12-15T17:34:50.780Z,1.56
2022-12-15T17:36:53.101Z,1.57
2022-12-15T17:39:00.713Z,1.55
2022-12-15T17:41:02.369Z,1.54
2022-12-15T17:43:17.126Z,1.54
2022-12-15T17:45:22.385Z,1.54
2022-12-15T17:47:25.501Z,1.52
2022-12-15T17:49:31.600Z,1.49
2022-12-15T17:51:36.839Z,1.46
2022-12-15T17:53:39.018Z,1.44
2022-12-15T17:55:41.425Z,1.44
2022-12-15T17:57:42.987Z,1.44
2022-12-15T17:59:47.635Z,1.44
2022-12-15T18:01:49.538Z,1.47
2022-12-15T18:03:51.413Z,1.46
2022-12-15T18:05:56.576Z,1.48
2022-12-15T18:08:01.496Z,1.45
2022-12-15T18:10:06.397Z,1.46
2022-12-15T18:12:22.586Z,1.43
2022-12-15T18:14:24.179Z,1.42
2022-12-15T18:16:25.749Z,1.44
2022-12-15T18:18:29.857Z,1.44
2022-12-15T18:20:31.460Z,1.43
2022-12-15T18:22:34.516Z,1.44
2022-12-15T18:24:36.385Z,1.46
2022-12-15T18:26:38.127Z,1.44
2022-12-15T18:28:39.891Z,1.43
2022-12-15T18:30:41.580Z,1.41
2022-12-15T18:32:44.943Z,1.41
2022-12-15T18:34:46.961Z,1.41
2022-12-15T18:36:51.566Z,1.40
2022-12-15T18:39:02.312Z,1.37
2022-12-15T18:41:07.157Z,1.37
2022-12-15T18:43:20.641Z,1.35
2022-12-15T18:45:27.958Z,1.33
2022-12-15T18:47:32.727Z,1.34
2022-12-15T18:49:34.304Z,1.32
2022-12-15T18:51:35.951Z,1.32
2022-12-15T18:53:40.702Z,1.30
2022-12-15T18:55:42.475Z,1.28
2022-12-15T18:57:44.131Z,1.26
2022-12-15T18:59:47.967Z,1.27
2022-12-15T19:01:52.653Z,1.26
2022-12-15T19:03:54.252Z,1.27
2022-12-15T19:06:23.947Z,1.24
2022-12-15T19:08:28.400Z,1.25
2022-12-15T19:10:33.756Z,1.21
2022-12-15T19:12:35.332Z,1.22
2022-12-15T19:14:43.385Z,1.21
2022-12-15T19:17:06.242Z,1.22
2022-12-15T19:19:29.995Z,1.22
2022-12-15T19:21:54.966Z,1.20
2022-12-15T19:23:56.673Z,1.20
2022-12-15T19:25:58.369Z,1.21
2022-12-15T19:28:00.977Z,1.18
2022-12-15T19:30:06.765Z,1.19
2022-12-15T19:32:11.670Z,1.20
2022-12-15T19:34:13.882Z,1.19
2022-12-15T19:36:24.416Z,1.19
2022-12-15T19:38:30.398Z,1.21
2022-12-15T19:40:34.524Z,1.22
2022-12-15T19:42:38.999Z,1.21
2022-12-15T19:44:40.625Z,1.19
2022-12-15T19:46:42.764Z,1.17
2022-12-15T19:48:44.778Z,1.17
2022-12-15T19:50:46.862Z,1.18
2022-12-15T19:52:52.069Z,1.16
2022-12-15T19:54:53.798Z,1.15
2022-12-15T19:56:55.429Z,1.14
2022-12-15T19:59:02.141Z,1.13
2022-12-15T20:01:10.111Z,1.11
2022-12-15T20:03:11.802Z,1.10
2022-12-15T20:05:14.930Z,1.10
2022-12-15T20:07:31.281Z,1.08
2022-12-15T20:09:32.854Z,1.07
2022-12-15T20:11:34.550Z,1.06
2022-12-15T20:13:38.638Z,1.04
2022-12-15T20:15:40.401Z,1.05
2022-12-15T20:17:41.995Z,1.05
2022-12-15T20:19:44.121Z,1.03
2022-12-15T20:21:45.923Z,1.03
2022-12-15T20:23:57.508Z,1.02
2022-12-15T20:26:00.068Z,1.01
2022-12-15T20:28:02.148Z,0.98
2022-12-15T20:30:05.775Z,0.99
2022-12-15T20:32:15.619Z,0.98
2022-12-15T20:34:17.427Z,0.99
2022-12-15T20:36:24.199Z,0.98
2022-12-15T20:38:34.116Z,0.95
2022-12-15T20:40:38.771Z,0.97
2022-12-15T20:42:40.445Z,0.96
2022-12-15T20:44:42.136Z,0.95
2022-12-15T20:46:47.458Z,0.95
2022-12-15T20:48:50.592Z,0.96
2022-12-15T20:50:53.372Z,0.97
2022-12-15T20:52:55.322Z,0.97
2022-12-15T20:54:57.040Z,0.95
2022-12-15T20:56:58.733Z,0.95
2022-12-15T20:59:00.258Z,0.97
2022-12-15T21:01:05.071Z,0.98
2022-12-15T21:03:28.651Z,0.96
2022-12-15T21:05:31.603Z,0.97
2022-12-15T21:07:33.386Z,0.95
2022-12-15T21:09:35.033Z,0.93
2022-12-15T21:11:36.783Z,0.94
2022-12-15T21:13:38.329Z,0.93
2022-12-15T21:15:39.904Z,0.93
2022-12-15T21:17:42.250Z,0.94
2022-12-15T21:19:44.731Z,0.92
2022-12-15T21:21:51.870Z,0.93
2022-12-15T21:23:54.814Z,0.93
2022-12-15T21:25:58.948Z,0.91
2022-12-15T21:28:03.085Z,0.91
2022-12-15T21:30:14.564Z,0.91
2022-12-15T21:32:16.384Z,0.91
2022-12-15T21:34:18.208Z,0.92
2022-12-15T21:36:21.157Z,0.92
2022-12-15T21:38:41.652Z,0.91
2022-12-15T21:40:45.216Z,0.90
2022-12-15T21:42:50.907Z,0.92
2022-12-15T21:44:52.501Z,0.93
2022-12-15T21:46:54.789Z,0.95
2022-12-15T21:49:15.549Z,0.97
2022-12-15T21:51:17.818Z,0.94
2022-12-15T21:53:19.403Z,0.95
2022-12-15T21:55:25.741Z,0.93
2022-12-15T21:57:27.196Z,0.90
2022-12-15T21:59:31.441Z,0.90
2022-12-15T22:01:33.146Z,0.92
2022-12-15T22:03:36.832Z,0.92
2022-12-15T22:05:38.755Z,0.93
2022-12-15T22:07:40.372Z,0.95
2022-12-15T22:09:43.111Z,0.95
2022-12-15T22:11:47.874Z,0.95
2022-12-15T22:13:53.778Z,0.96
2022-12-15T22:15:59.296Z,0.97
2022-12-15T22:18:04.938Z,0.98
2022-12-15T22:20:21.236Z,0.99
2022-12-15T22:22:30.135Z,1.02
2022-12-15T22:24:33.421Z,1.03
2022-12-15T22:26:35.750Z,1.05
2022-12-15T22:28:37.429Z,1.07
2022-12-15T22:30:39.038Z,1.09
2022-12-15T22:32:40.585Z,1.08
2022-12-15T22:34:42.657Z,1.11
2022-12-15T22:36:46.972Z,1.12
2022-12-15T22:38:48.609Z,1.12
2022-12-15T22:40:53.635Z,1.15
2022-12-15T22:42:58.248Z,1.18
2022-12-15T22:45:00.271Z,1.19
2022-12-15T22:47:04.014Z,1.21
2022-12-15T22:49:05.566Z,1.24
2022-12-15T22:51:13.555Z,1.26
2022-12-15T22:53:17.217Z,1.28
2022-12-15T22:55:23.169Z,1.28
2022-12-15T22:57:32.649Z,1.34
2022-12-15T22:59:46.767Z,1.37
2022-12-15T23:01:57.844Z,1.38
2022-12-15T23:03:59.726Z,1.41
2022-12-15T23:06:03.268Z,1.42
2022-12-15T23:08:07.242Z,1.44
2022-12-15T23:10:28.350Z,1.45
2022-12-15T23:12:30.054Z,1.47
2022-12-15T23:14:49.990Z,1.50
2022-12-15T23:16:51.980Z,1.53
2022-12-15T23:18:55.870Z,1.55
2022-12-15T23:20:57.475Z,1.57
2022-12-15T23:22:59.235Z,1.61
2022-12-15T23:25:09.815Z,1.62
2022-12-15T23:27:12.468Z,1.65
2022-12-15T23:29:17.508Z,1.67
2022-12-15T23:31:19.713Z,1.69
2022-12-15T23:33:22.332Z,1.72
2022-12-15T23:35:23.836Z,1.74
2022-12-15T23:37:25.508Z,1.75
2022-12-15T23:39:33.045Z,1.77
2022-12-15T23:41:34.606Z,1.78
2022-12-15T23:43:36.212Z,1.81
2022-12-15T23:45:38.379Z,1.81
2022-12-15T23:47:49.587Z,1.84
2022-12-15T23:49:51.209Z,1.85
2022-12-15T23:51:53.474Z,1.87
2022-12-15T23:53:56.817Z,1.89
2022-12-15T23:56:06.544Z,1.91
2022-12-15T23:58:08.181Z,1.96
